Terminal Aerodrome Forecast
Issued by NWS

Home | Current Version | Previous Version | Text Only | Print | Product List | Glossary On
Versions: 1 2 3 4 5 6 7 8 9 10 11 12 13 14 15 16 17 18 19 20 21 22 23 24 25 26 27 28 29 30 31 32 33
000
FTPA31 PHFO 271700
TAFITO
TAF
PHTO 271730Z 2718/2818 15006KT 6SM -SHRA SCT025 OVC040
      TEMPO 2718/2720 3SM -SHRA BR OVC025
     FM272000 10010KT 5SM -SHRA BKN025 OVC040
     FM280500 VRB05KT P6SM VCSH SCT025 BKN040=

USA.gov is the U.S. government's official web portal to all federal, state and local government web resources and services.